createdAt,value
2022-07-28T00:00:44.099Z,17.20
2022-07-28T00:03:10.914Z,17.20
2022-07-28T00:05:37.859Z,17.20
2022-07-28T00:08:05.328Z,17.00
2022-07-28T00:10:32.373Z,16.90
2022-07-28T00:12:59.948Z,16.80
2022-07-28T00:15:28.014Z,16.80
2022-07-28T00:17:54.818Z,16.60
2022-07-28T00:20:21.693Z,16.50
2022-07-28T00:22:48.420Z,16.40
2022-07-28T00:25:15.284Z,16.30
2022-07-28T00:27:42.159Z,16.20
2022-07-28T00:30:10.053Z,16.20
2022-07-28T00:32:37.693Z,16.20
2022-07-28T00:35:05.098Z,16.20
2022-07-28T00:37:39.720Z,16.10
2022-07-28T00:40:08.415Z,16.10
2022-07-28T00:42:35.132Z,16.10
2022-07-28T00:45:01.910Z,16.10
2022-07-28T00:47:33.535Z,16.10
2022-07-28T00:50:01.924Z,16.00
2022-07-28T00:52:28.807Z,15.80
2022-07-28T00:54:56.051Z,15.70
2022-07-28T00:57:22.749Z,15.70
2022-07-28T00:59:49.547Z,15.50
2022-07-28T01:02:16.546Z,15.40
2022-07-28T01:04:43.462Z,15.30
2022-07-28T01:07:35.338Z,15.30
2022-07-28T01:10:36.170Z,15.40
2022-07-28T01:13:20.753Z,15.40
2022-07-28T01:16:03.032Z,15.40
2022-07-28T01:18:36.210Z,15.40
2022-07-28T01:21:09.042Z,15.40
2022-07-28T01:23:54.193Z,15.30
2022-07-28T01:26:30.157Z,15.30
2022-07-28T01:29:09.037Z,15.30
2022-07-28T01:31:52.125Z,15.30
2022-07-28T01:34:25.799Z,15.20
2022-07-28T01:36:58.220Z,14.90
2022-07-28T01:39:29.147Z,14.80
2022-07-28T01:41:58.170Z,14.70
2022-07-28T01:44:26.574Z,14.70
2022-07-28T01:46:54.602Z,14.60
2022-07-28T01:49:23.074Z,14.50
2022-07-28T01:51:51.284Z,14.60
2022-07-28T01:54:22.010Z,14.60
2022-07-28T01:56:50.965Z,14.70
2022-07-28T01:59:19.305Z,14.50
2022-07-28T02:01:48.533Z,14.40
2022-07-28T02:04:21.210Z,14.30
2022-07-28T02:06:49.185Z,14.20
2022-07-28T02:09:18.312Z,14.20
2022-07-28T02:11:47.772Z,14.20
2022-07-28T02:14:18.903Z,14.20
2022-07-28T02:16:49.020Z,14.20
2022-07-28T02:19:18.352Z,14.10
2022-07-28T02:21:47.757Z,14.10
2022-07-28T02:24:17.585Z,14.00
2022-07-28T02:26:50.479Z,14.00
2022-07-28T02:29:48.112Z,14.10
2022-07-28T02:32:30.151Z,14.00
2022-07-28T02:35:01.944Z,13.90
2022-07-28T02:37:37.517Z,13.70
2022-07-28T02:40:08.659Z,13.60
2022-07-28T02:42:36.919Z,13.60
2022-07-28T02:45:07.148Z,13.60
2022-07-28T02:47:40.084Z,13.60
2022-07-28T02:50:08.461Z,13.40
2022-07-28T02:52:36.333Z,13.40
2022-07-28T02:55:03.949Z,13.50
2022-07-28T02:57:31.190Z,13.50
2022-07-28T02:59:58.729Z,13.40
2022-07-28T03:02:26.036Z,13.50
2022-07-28T03:04:59.699Z,13.50
2022-07-28T03:07:31.433Z,13.40
2022-07-28T03:09:59.697Z,13.50
2022-07-28T03:12:26.882Z,13.50
2022-07-28T03:14:53.970Z,13.40
2022-07-28T03:17:20.852Z,13.40
2022-07-28T03:19:47.636Z,13.30
2022-07-28T03:22:14.946Z,13.30
2022-07-28T03:24:51.985Z,13.30
2022-07-28T03:27:31.119Z,13.30
2022-07-28T03:30:08.305Z,13.30
2022-07-28T03:32:40.331Z,13.30
2022-07-28T03:35:07.705Z,13.20
2022-07-28T03:37:43.582Z,13.10
2022-07-28T03:40:12.377Z,13.00
2022-07-28T03:42:40.966Z,13.00
2022-07-28T03:45:08.359Z,12.90
2022-07-28T03:47:35.031Z,13.00
2022-07-28T03:50:01.750Z,13.10
2022-07-28T03:52:28.480Z,13.00
2022-07-28T03:54:55.162Z,13.00
2022-07-28T03:57:22.714Z,13.00
2022-07-28T03:59:49.470Z,12.90
2022-07-28T04:02:16.257Z,12.90
2022-07-28T04:04:43.066Z,12.80
2022-07-28T04:07:09.763Z,12.90
2022-07-28T04:09:36.447Z,12.80
2022-07-28T04:12:03.175Z,12.90
2022-07-28T04:14:29.910Z,13.00
2022-07-28T04:16:56.751Z,13.00
2022-07-28T04:19:23.504Z,13.10
2022-07-28T04:21:50.255Z,13.10
2022-07-28T04:24:17.224Z,13.00
2022-07-28T04:26:44.371Z,13.00
2022-07-28T04:29:11.181Z,13.00
2022-07-28T04:31:38.071Z,12.90
2022-07-28T04:34:04.828Z,12.90
2022-07-28T04:36:32.356Z,12.90
2022-07-28T04:38:59.412Z,13.00
2022-07-28T04:41:27.253Z,13.00
2022-07-28T04:43:53.982Z,13.00
2022-07-28T04:46:20.793Z,12.90
2022-07-28T04:48:47.668Z,12.90
2022-07-28T04:51:14.515Z,13.00
2022-07-28T04:53:41.325Z,13.10
2022-07-28T04:56:08.040Z,13.20
2022-07-28T04:58:35.368Z,13.20
2022-07-28T05:01:02.252Z,13.30
2022-07-28T05:03:32.806Z,13.30
2022-07-28T05:06:02.626Z,13.30
2022-07-28T05:08:29.307Z,13.40
2022-07-28T05:10:56.633Z,13.50
2022-07-28T05:13:24.197Z,13.60
2022-07-28T05:15:51.208Z,13.50
2022-07-28T05:18:18.168Z,13.60
2022-07-28T05:20:44.857Z,13.70
2022-07-28T05:23:12.743Z,13.80
2022-07-28T05:25:39.526Z,14.00
2022-07-28T05:28:06.234Z,14.10
2022-07-28T05:30:32.983Z,14.30
2022-07-28T05:33:01.767Z,14.40
2022-07-28T05:35:28.753Z,14.60
2022-07-28T05:37:55.564Z,14.70
2022-07-28T05:40:22.303Z,14.80
2022-07-28T05:42:49.074Z,14.90
2022-07-28T05:45:17.599Z,14.80
2022-07-28T05:47:52.100Z,14.80
2022-07-28T05:50:25.245Z,14.90
2022-07-28T05:52:52.464Z,15.00
2022-07-28T05:55:19.688Z,15.00
2022-07-28T05:57:47.080Z,15.00
2022-07-28T06:00:19.644Z,15.20
2022-07-28T06:02:47.384Z,15.40
2022-07-28T06:05:16.995Z,15.50
2022-07-28T06:07:45.008Z,15.60
2022-07-28T06:10:14.421Z,15.70
2022-07-28T06:12:46.975Z,15.80
2022-07-28T06:15:14.857Z,16.00
2022-07-28T06:17:41.856Z,16.10
2022-07-28T06:20:09.456Z,16.30
2022-07-28T06:22:48.009Z,16.40
2022-07-28T06:25:16.727Z,16.60
2022-07-28T06:27:48.850Z,16.70
2022-07-28T06:30:16.624Z,16.80
2022-07-28T06:32:43.946Z,16.90
2022-07-28T06:35:13.962Z,17.00
2022-07-28T06:37:41.034Z,17.10
2022-07-28T06:40:08.978Z,17.30
2022-07-28T06:42:35.707Z,17.30
2022-07-28T06:45:02.481Z,17.40
2022-07-28T06:47:29.178Z,17.50
2022-07-28T06:49:55.891Z,17.50
2022-07-28T06:52:22.832Z,17.70
2022-07-28T06:54:51.697Z,17.80
2022-07-28T06:57:20.815Z,17.90
2022-07-28T06:59:48.561Z,17.90
2022-07-28T07:02:16.385Z,18.10
2022-07-28T07:04:45.416Z,18.20
2022-07-28T07:07:16.864Z,18.20
2022-07-28T07:09:44.427Z,18.40
2022-07-28T07:12:11.246Z,18.40
2022-07-28T07:14:38.188Z,18.40
2022-07-28T07:17:04.935Z,18.40
2022-07-28T07:19:31.649Z,18.60
2022-07-28T07:21:58.346Z,18.60
2022-07-28T07:24:25.082Z,18.80
2022-07-28T07:26:51.773Z,18.90
2022-07-28T07:29:19.809Z,19.00
2022-07-28T07:31:46.630Z,19.10
2022-07-28T07:34:19.447Z,19.10
2022-07-28T07:36:46.302Z,19.30
2022-07-28T07:39:13.398Z,19.30
2022-07-28T07:41:40.150Z,19.40
2022-07-28T07:44:06.863Z,19.40
2022-07-28T07:46:33.899Z,19.50
2022-07-28T07:49:00.796Z,19.50
2022-07-28T07:51:28.074Z,19.60
2022-07-28T07:53:54.859Z,19.60
2022-07-28T07:56:21.687Z,19.60
2022-07-28T07:58:53.651Z,19.80
2022-07-28T08:01:23.265Z,19.80
2022-07-28T08:03:50.331Z,20.00
2022-07-28T08:06:17.135Z,19.90
2022-07-28T08:08:53.166Z,20.10
2022-07-28T08:11:19.954Z,20.20
2022-07-28T08:13:46.648Z,20.10
2022-07-28T08:16:13.394Z,20.10
2022-07-28T08:18:40.133Z,20.10
2022-07-28T08:21:06.850Z,20.10
2022-07-28T08:23:33.574Z,20.20
2022-07-28T08:26:00.310Z,20.20
2022-07-28T08:28:27.084Z,20.30
2022-07-28T08:30:53.883Z,20.30
2022-07-28T08:33:21.747Z,20.30
2022-07-28T08:35:49.482Z,20.40
2022-07-28T08:38:16.504Z,20.50
2022-07-28T08:40:48.335Z,20.50
2022-07-28T08:43:30.426Z,20.50
2022-07-28T08:46:01.154Z,20.50
2022-07-28T08:48:31.433Z,20.60
2022-07-28T08:51:06.767Z,20.60
2022-07-28T08:53:35.739Z,20.60
2022-07-28T08:56:05.256Z,20.60
2022-07-28T08:58:34.295Z,20.80
2022-07-28T09:01:01.760Z,20.90
2022-07-28T09:03:29.389Z,21.00
2022-07-28T09:05:57.484Z,21.00
2022-07-28T09:08:24.736Z,21.00
2022-07-28T09:10:51.772Z,21.10
2022-07-28T09:13:19.217Z,21.20
2022-07-28T09:15:47.434Z,21.30
2022-07-28T09:18:15.724Z,21.40
2022-07-28T09:20:44.040Z,21.50
2022-07-28T09:23:43.213Z,21.50
2022-07-28T09:26:11.803Z,21.60
2022-07-28T09:28:55.181Z,21.50
2022-07-28T09:31:23.905Z,21.50
2022-07-28T09:34:04.394Z,21.70
2022-07-28T09:36:38.835Z,21.70
2022-07-28T09:39:06.078Z,21.80
2022-07-28T09:41:49.693Z,21.90
2022-07-28T09:44:19.645Z,21.90
2022-07-28T09:46:46.619Z,22.10
2022-07-28T09:49:13.568Z,22.00
2022-07-28T09:51:40.521Z,22.10
2022-07-28T09:54:13.084Z,22.10
2022-07-28T09:56:45.327Z,22.30
2022-07-28T09:59:13.973Z,22.30
2022-07-28T10:01:55.437Z,22.30
2022-07-28T10:04:43.227Z,22.30
2022-07-28T10:07:14.134Z,22.40
2022-07-28T10:09:41.497Z,22.60
2022-07-28T10:12:21.731Z,22.70
2022-07-28T10:14:51.659Z,22.70
2022-07-28T10:17:26.773Z,22.70
2022-07-28T10:19:55.085Z,22.80
2022-07-28T10:22:23.534Z,22.80
2022-07-28T10:24:53.288Z,22.70
2022-07-28T10:27:25.718Z,22.80
2022-07-28T10:29:55.773Z,22.90
2022-07-28T10:32:22.996Z,22.90
2022-07-28T10:34:55.950Z,23.00
2022-07-28T10:37:25.576Z,23.10
2022-07-28T10:40:09.828Z,23.10
2022-07-28T10:42:39.362Z,23.30
2022-07-28T10:45:08.000Z,23.30
2022-07-28T10:47:35.879Z,23.30
2022-07-28T10:50:04.087Z,23.40
2022-07-28T10:52:46.802Z,23.40
2022-07-28T10:55:39.078Z,23.40
2022-07-28T10:58:27.047Z,23.50
2022-07-28T11:00:58.177Z,23.60
2022-07-28T11:03:44.083Z,23.70
2022-07-28T11:06:36.770Z,23.70
2022-07-28T11:09:15.762Z,23.90
2022-07-28T11:11:50.591Z,23.90
2022-07-28T11:14:26.154Z,24.00
2022-07-28T11:17:10.116Z,24.10
2022-07-28T11:20:07.228Z,24.20
2022-07-28T11:22:32.778Z,24.20
2022-07-28T11:25:19.021Z,24.30
2022-07-28T11:27:50.399Z,24.40
2022-07-28T11:30:28.582Z,24.40
2022-07-28T11:32:55.357Z,24.40
2022-07-28T11:35:26.707Z,24.30
2022-07-28T11:38:02.341Z,24.40
2022-07-28T11:40:33.540Z,24.60
2022-07-28T11:43:35.382Z,24.70
2022-07-28T11:46:07.041Z,24.80
2022-07-28T11:48:40.395Z,24.80
2022-07-28T11:51:07.246Z,24.90
2022-07-28T11:53:39.455Z,24.90
2022-07-28T11:56:22.209Z,25.00
2022-07-28T11:58:59.879Z,25.10
2022-07-28T12:01:27.138Z,25.10
2022-07-28T12:03:56.812Z,25.20
2022-07-28T12:06:35.380Z,25.20
2022-07-28T12:09:06.933Z,25.30
2022-07-28T12:11:36.018Z,25.30
2022-07-28T12:14:05.990Z,25.50
2022-07-28T12:16:34.714Z,25.50
2022-07-28T12:19:02.353Z,25.50
2022-07-28T12:21:46.508Z,25.50
2022-07-28T12:24:19.271Z,25.50
2022-07-28T12:26:49.583Z,25.70
2022-07-28T12:29:20.476Z,25.70
2022-07-28T12:31:55.704Z,25.70
2022-07-28T12:34:26.737Z,25.90
2022-07-28T12:36:58.387Z,25.90
2022-07-28T12:39:25.971Z,26.00
2022-07-28T12:42:06.869Z,26.10
2022-07-28T12:44:37.457Z,26.20
2022-07-28T12:47:07.835Z,26.30
2022-07-28T12:49:36.167Z,26.40
2022-07-28T12:52:23.271Z,26.60
2022-07-28T12:54:54.566Z,26.60
2022-07-28T12:57:54.556Z,26.60
2022-07-28T13:00:27.065Z,26.80
2022-07-28T13:02:56.427Z,26.90
2022-07-28T13:05:30.310Z,27.00
2022-07-28T13:08:05.848Z,27.00
2022-07-28T13:10:33.198Z,27.10
2022-07-28T13:13:05.888Z,27.20
2022-07-28T13:15:32.941Z,27.30
2022-07-28T13:18:00.058Z,27.30
2022-07-28T13:20:27.309Z,27.50
2022-07-28T13:22:54.612Z,27.60
2022-07-28T13:25:21.837Z,27.80
2022-07-28T13:27:55.130Z,28.00
2022-07-28T13:30:23.472Z,28.10
2022-07-28T13:32:50.459Z,28.20
2022-07-28T13:35:18.776Z,28.20
2022-07-28T13:37:45.706Z,28.30
2022-07-28T13:40:12.822Z,28.30
2022-07-28T13:42:39.537Z,28.20
2022-07-28T13:45:06.739Z,28.40
2022-07-28T13:47:35.473Z,28.40
2022-07-28T13:50:06.171Z,28.60
2022-07-28T13:52:35.253Z,28.70
2022-07-28T13:55:06.144Z,28.90
2022-07-28T13:57:36.725Z,29.00
2022-07-28T14:00:08.380Z,29.10
2022-07-28T14:02:35.894Z,29.30
2022-07-28T14:05:04.146Z,29.40
2022-07-28T14:07:30.895Z,29.60
2022-07-28T14:09:58.563Z,29.70
2022-07-28T14:12:26.262Z,29.80
2022-07-28T14:14:52.944Z,29.80
2022-07-28T14:20:10.484Z,30.20
2022-07-28T14:22:37.231Z,30.00
2022-07-28T14:25:04.349Z,29.90
2022-07-28T14:27:31.117Z,30.00
2022-07-28T14:29:58.047Z,30.00
2022-07-28T14:32:24.836Z,30.00
2022-07-28T14:34:51.738Z,30.10
2022-07-28T14:37:20.253Z,30.30
2022-07-28T14:39:46.972Z,30.40
2022-07-28T14:42:13.779Z,30.60
2022-07-28T14:44:40.505Z,30.70
2022-07-28T14:47:07.486Z,30.60
2022-07-28T14:49:37.016Z,30.50
2022-07-28T14:52:04.146Z,30.50
2022-07-28T14:54:32.832Z,30.20
2022-07-28T14:56:59.563Z,30.20
2022-07-28T14:59:26.315Z,30.30
2022-07-28T15:01:53.127Z,30.40
2022-07-28T15:04:19.974Z,30.20
2022-07-28T15:06:47.350Z,30.40
2022-07-28T15:09:14.834Z,30.40
2022-07-28T15:11:42.049Z,30.30
2022-07-28T15:14:08.790Z,30.10
2022-07-28T15:16:36.022Z,29.90
2022-07-28T15:19:02.902Z,30.30
2022-07-28T15:21:34.312Z,30.30
2022-07-28T15:24:03.645Z,30.20
2022-07-28T15:26:30.525Z,30.10
2022-07-28T15:28:57.549Z,29.90
2022-07-28T15:31:27.198Z,29.80
2022-07-28T15:33:58.055Z,29.30
2022-07-28T15:36:25.716Z,29.40
2022-07-28T15:38:53.667Z,30.00
2022-07-28T15:41:20.748Z,30.00
2022-07-28T15:43:47.646Z,29.80
2022-07-28T15:46:14.788Z,29.80
2022-07-28T15:48:44.548Z,29.30
2022-07-28T15:51:11.800Z,28.90
2022-07-28T15:53:38.857Z,28.60
2022-07-28T15:56:05.898Z,28.50
2022-07-28T15:58:33.089Z,28.80
2022-07-28T16:01:01.781Z,29.00
2022-07-28T16:03:29.723Z,29.30
2022-07-28T16:05:56.962Z,29.50
2022-07-28T16:08:23.863Z,30.00
2022-07-28T16:10:52.348Z,30.40
2022-07-28T16:13:28.590Z,30.70
2022-07-28T16:16:14.877Z,30.30
2022-07-28T16:18:43.757Z,29.40
2022-07-28T16:21:11.508Z,28.90
2022-07-28T16:23:38.356Z,28.50
2022-07-28T16:26:07.875Z,28.80
2022-07-28T16:28:35.219Z,29.90
2022-07-28T16:31:02.240Z,30.90
2022-07-28T16:33:33.330Z,31.00
2022-07-28T16:36:01.334Z,31.10
2022-07-28T16:38:28.105Z,30.90
2022-07-28T16:40:54.861Z,30.90
2022-07-28T16:43:21.561Z,30.70
2022-07-28T16:45:48.434Z,30.70
2022-07-28T16:48:15.246Z,30.60
2022-07-28T16:50:45.773Z,30.70
2022-07-28T16:53:13.839Z,31.20
2022-07-28T16:55:42.107Z,31.40
2022-07-28T16:58:08.909Z,31.70
2022-07-28T17:00:35.944Z,31.70
2022-07-28T17:03:02.740Z,31.70
2022-07-28T17:05:29.490Z,31.90
2022-07-28T17:07:56.208Z,31.90
2022-07-28T17:10:27.252Z,31.80
2022-07-28T17:12:54.879Z,31.40
2022-07-28T17:15:23.145Z,31.20
2022-07-28T17:17:54.132Z,30.80
2022-07-28T17:20:21.157Z,30.30
2022-07-28T17:22:48.254Z,30.00
2022-07-28T17:25:43.928Z,29.80
2022-07-28T17:28:02.770Z,29.30
2022-07-28T17:30:31.608Z,28.60
2022-07-28T17:33:07.891Z,28.10
2022-07-28T17:35:36.261Z,27.60
2022-07-28T17:38:04.536Z,27.20
2022-07-28T17:40:32.526Z,26.90
2022-07-28T17:42:59.494Z,26.60
2022-07-28T17:45:26.210Z,26.40
2022-07-28T17:47:52.930Z,26.10
2022-07-28T17:50:19.693Z,25.90
2022-07-28T17:52:46.962Z,25.80
2022-07-28T17:55:55.815Z,25.60
2022-07-28T17:58:31.966Z,25.40
2022-07-28T18:01:09.790Z,25.20
2022-07-28T18:03:57.608Z,25.10
2022-07-28T18:06:32.425Z,25.00
2022-07-28T18:09:05.723Z,24.90
2022-07-28T18:11:33.684Z,24.80
2022-07-28T18:14:04.584Z,24.80
2022-07-28T18:16:34.273Z,24.80
2022-07-28T18:19:02.387Z,24.70
2022-07-28T18:21:29.283Z,24.70
2022-07-28T18:23:55.987Z,24.60
2022-07-28T18:26:22.821Z,24.50
2022-07-28T18:28:49.810Z,24.40
2022-07-28T18:31:16.681Z,24.40
2022-07-28T18:33:43.989Z,24.40
2022-07-28T18:36:10.675Z,24.40
2022-07-28T18:38:37.414Z,24.30
2022-07-28T18:41:04.206Z,24.30
2022-07-28T18:43:31.129Z,24.20
2022-07-28T18:45:57.930Z,24.10
2022-07-28T18:48:25.508Z,24.00
2022-07-28T18:50:52.524Z,23.90
2022-07-28T18:53:19.386Z,23.80
2022-07-28T18:55:46.167Z,23.70
2022-07-28T18:58:12.848Z,23.50
2022-07-28T19:00:39.626Z,23.40
2022-07-28T19:03:06.371Z,23.30
2022-07-28T19:05:36.445Z,23.10
2022-07-28T19:08:04.762Z,22.90
2022-07-28T19:10:32.437Z,22.80
2022-07-28T19:12:59.537Z,22.60
2022-07-28T19:15:26.603Z,22.60
2022-07-28T19:18:11.210Z,22.60
2022-07-28T19:20:44.084Z,22.60
2022-07-28T19:23:10.935Z,22.60
2022-07-28T19:25:39.269Z,22.50
2022-07-28T19:28:06.542Z,22.50
2022-07-28T19:30:33.975Z,22.30
2022-07-28T19:33:00.878Z,22.20
2022-07-28T19:35:27.799Z,22.20
2022-07-28T19:37:59.565Z,22.20
2022-07-28T19:40:29.168Z,22.20
2022-07-28T19:42:57.477Z,22.30
2022-07-28T19:45:25.217Z,22.20
2022-07-28T19:47:52.094Z,22.20
2022-07-28T19:50:19.024Z,22.10
2022-07-28T19:52:46.041Z,21.90
2022-07-28T19:55:17.709Z,21.90
2022-07-28T19:57:47.507Z,21.70
2022-07-28T20:00:17.301Z,21.50
2022-07-28T20:02:44.187Z,21.30
2022-07-28T20:05:11.088Z,20.70
2022-07-28T20:07:38.111Z,20.00
2022-07-28T20:10:05.723Z,19.90
2022-07-28T20:12:36.359Z,19.70
2022-07-28T20:15:07.660Z,19.50
2022-07-28T20:17:39.291Z,19.10
2022-07-28T20:20:12.166Z,18.60
2022-07-28T20:22:39.724Z,18.20
2022-07-28T20:25:09.526Z,18.30
2022-07-28T20:27:40.275Z,18.40
2022-07-28T20:30:09.623Z,18.20
2022-07-28T20:32:37.535Z,17.70
2022-07-28T20:35:05.804Z,17.40
2022-07-28T20:37:36.898Z,17.40
2022-07-28T20:40:05.882Z,17.40
2022-07-28T20:42:32.685Z,17.60
2022-07-28T20:44:59.388Z,17.40
2022-07-28T20:47:27.797Z,17.50
2022-07-28T20:49:55.209Z,17.60
2022-07-28T20:52:22.196Z,17.70
2022-07-28T20:54:54.012Z,17.70
2022-07-28T20:57:21.729Z,17.80
2022-07-28T20:59:50.959Z,17.70
2022-07-28T21:02:18.650Z,17.40
2022-07-28T21:04:45.412Z,17.10
2022-07-28T21:07:12.167Z,17.10
2022-07-28T21:09:39.837Z,17.30
2022-07-28T21:12:07.264Z,17.30
2022-07-28T21:14:34.078Z,17.50
2022-07-28T21:17:00.960Z,17.50
2022-07-28T21:19:27.831Z,17.60
2022-07-28T21:21:54.596Z,17.60
2022-07-28T21:24:21.328Z,17.70
2022-07-28T21:26:49.688Z,17.90
2022-07-28T21:32:03.556Z,18.00
2022-07-28T21:34:31.387Z,18.10
2022-07-28T21:37:01.151Z,18.10
2022-07-28T21:39:28.305Z,18.10
2022-07-28T21:41:55.088Z,18.10
2022-07-28T21:44:21.854Z,18.10
2022-07-28T21:46:48.664Z,18.10
2022-07-28T21:49:15.445Z,18.10
2022-07-28T21:51:42.503Z,18.00
2022-07-28T21:54:09.308Z,17.90
2022-07-28T21:56:36.033Z,17.60
2022-07-28T21:59:02.977Z,17.40
2022-07-28T22:01:30.433Z,17.10
2022-07-28T22:03:57.533Z,16.60
2022-07-28T22:06:24.247Z,16.70
2022-07-28T22:08:53.858Z,16.60
2022-07-28T22:11:23.700Z,16.50
2022-07-28T22:13:50.577Z,16.50
2022-07-28T22:16:17.313Z,16.70
2022-07-28T22:18:44.322Z,16.80
2022-07-28T22:21:11.168Z,16.90
2022-07-28T22:23:37.901Z,17.00
2022-07-28T22:26:04.624Z,17.00
2022-07-28T22:28:31.498Z,17.10
2022-07-28T22:31:09.191Z,17.10
2022-07-28T22:33:40.175Z,17.10
2022-07-28T22:36:08.618Z,17.20
2022-07-28T22:38:35.872Z,17.30
2022-07-28T22:41:03.033Z,17.30
2022-07-28T22:43:33.025Z,17.30
2022-07-28T22:45:59.984Z,17.20
2022-07-28T22:48:26.891Z,17.20
2022-07-28T22:50:53.581Z,17.20
2022-07-28T22:53:20.293Z,17.10
2022-07-28T22:55:47.117Z,17.10
2022-07-28T22:58:13.896Z,17.10
2022-07-28T23:00:40.674Z,17.20
2022-07-28T23:03:07.539Z,17.20
2022-07-28T23:05:38.546Z,17.20
2022-07-28T23:08:06.216Z,17.10
2022-07-28T23:10:33.225Z,16.90
2022-07-28T23:13:00.290Z,16.90
2022-07-28T23:15:39.451Z,17.00
2022-07-28T23:18:11.752Z,16.90
2022-07-28T23:20:39.790Z,16.90
2022-07-28T23:23:07.097Z,17.00
2022-07-28T23:25:36.283Z,17.00
2022-07-28T23:28:03.443Z,17.10
2022-07-28T23:30:30.185Z,17.20
2022-07-28T23:32:56.915Z,17.30
2022-07-28T23:35:23.701Z,17.30
2022-07-28T23:37:50.471Z,17.20
2022-07-28T23:40:17.272Z,17.20
2022-07-28T23:42:44.082Z,17.20
2022-07-28T23:45:11.131Z,17.20
2022-07-28T23:47:37.906Z,17.20
2022-07-28T23:50:05.706Z,17.30
2022-07-28T23:52:32.516Z,17.30
2022-07-28T23:54:59.190Z,17.30
2022-07-28T23:57:31.112Z,17.30
2022-07-28T23:59:59.282Z,17.40
